KLFK/LFK METAR and TAF weather

Enter ICAO airport designator
Station Type Date Time Source
KLFK METAR 2020/03/31 07:53 UTC NOAA

KLFK 310753Z AUTO 30005KT 10SM OVC017 18/17 A2986 RMK AO2 RAB27E43 SLP108 P0000 T01830172


Station Type Date Time Source
KLFK Decoded METAR 2020/03/31 07:53 UTC NOAA

LUFKIN ANGELINA COUNTY AIRPORT , TX, United States (KLFK) 31-14N 94-45W 88M
Mar 31, 2020 - 03:53 AM EDT / 2020.03.31 0753 UTC
Wind: from the WNW (300 degrees) at 6 MPH (5 KT):0
Visibility: 10 mile(s):0
Sky conditions: overcast
Precipitation last hour: A trace
Temperature: 64.9 F (18.3 C)
Dew Point: 63.0 F (17.2 C)
Relative Humidity: 93%
Pressure (altimeter): 29.86 in. Hg (1011 hPa)
ob: KLFK 310753Z AUTO 30005KT 10SM OVC017 18/17 A2986 RMK AO2 RAB27E43 SLP108 P0000 T01830172
cycle: 8

Station Type Date Time Source
KLFK TAF 2020/03/31 06:24 UTC NOAA

TAF KLFK 310522Z 3106/0106 21006KT 6SM BR VCSH SCT009 BKN019
FM310800 29006KT 5SM BR VCSH SCT008 BKN012
FM311100 31006KT P6SM SCT010 BKN025
FM311500 33012KT P6SM SCT011 BKN025
FM311800 33012KT P6SM FEW021 SCT050
FM010000 34004KT P6SM FEW050

Example: see airport list